createdAt,value
2023-05-22T00:00:13.559Z,91.69
2023-05-22T00:02:43.671Z,92.05
2023-05-22T00:05:13.039Z,93.18
2023-05-22T00:07:43.423Z,93.09
2023-05-22T00:10:12.324Z,92.99
2023-05-22T00:12:40.640Z,93.08
2023-05-22T00:15:09.774Z,93.17
2023-05-22T00:17:37.815Z,92.90
2023-05-22T00:20:07.891Z,93.09
2023-05-22T00:22:36.464Z,92.85
2023-05-22T00:25:07.115Z,92.54
2023-05-22T00:27:35.423Z,92.61
2023-05-22T00:30:03.727Z,92.56
2023-05-22T00:32:31.726Z,92.07
2023-05-22T00:34:59.687Z,92.22
2023-05-22T00:37:27.629Z,92.40
2023-05-22T00:39:55.860Z,92.19
2023-05-22T00:42:25.609Z,92.03
2023-05-22T00:44:53.665Z,92.08
2023-05-22T00:47:23.750Z,92.22
2023-05-22T00:49:51.865Z,92.45
2023-05-22T00:52:20.983Z,92.56
2023-05-22T00:54:51.495Z,92.73
2023-05-22T00:57:20.327Z,92.74
2023-05-22T00:59:50.238Z,93.22
2023-05-22T01:02:18.252Z,93.40
2023-05-22T01:04:48.534Z,93.04
2023-05-22T01:07:18.198Z,93.07
2023-05-22T01:09:46.176Z,93.66
2023-05-22T01:12:25.492Z,93.85
2023-05-22T01:15:01.308Z,93.41
2023-05-22T01:17:35.103Z,93.65
2023-05-22T01:20:14.414Z,93.39
2023-05-22T01:22:58.668Z,93.41
2023-05-22T01:25:50.551Z,93.12
2023-05-22T01:28:43.032Z,92.90
2023-05-22T01:31:14.529Z,92.92
2023-05-22T01:33:47.762Z,92.37
2023-05-22T01:36:20.196Z,92.38
2023-05-22T01:38:48.441Z,92.00
2023-05-22T01:41:18.148Z,91.72
2023-05-22T01:43:47.781Z,91.70
2023-05-22T01:46:17.178Z,91.67
2023-05-22T01:48:45.186Z,91.46
2023-05-22T01:51:21.355Z,91.42
2023-05-22T01:53:58.687Z,91.81
2023-05-22T01:56:31.730Z,92.38
2023-05-22T01:59:10.591Z,92.00
2023-05-22T02:01:40.761Z,92.19
2023-05-22T02:04:11.390Z,92.43
2023-05-22T02:06:40.737Z,92.99
2023-05-22T02:09:09.909Z,92.73
2023-05-22T02:11:41.346Z,92.79
2023-05-22T02:14:12.301Z,92.58
2023-05-22T02:16:42.677Z,93.08
2023-05-22T02:19:10.687Z,93.03
2023-05-22T02:21:38.847Z,92.69
2023-05-22T02:24:07.083Z,93.01
2023-05-22T02:26:35.044Z,93.45
2023-05-22T02:29:03.147Z,93.12
2023-05-22T02:31:31.559Z,93.09
2023-05-22T02:34:00.930Z,93.02
2023-05-22T02:36:30.945Z,93.26
2023-05-22T02:38:59.168Z,93.61
2023-05-22T02:41:27.231Z,93.26
2023-05-22T02:43:56.179Z,93.43
2023-05-22T02:46:24.298Z,93.21
2023-05-22T02:48:52.293Z,93.32
2023-05-22T02:51:21.757Z,93.42
2023-05-22T02:53:49.810Z,93.67
2023-05-22T02:56:18.906Z,93.51
2023-05-22T02:58:46.848Z,93.91
2023-05-22T03:01:15.617Z,93.77
2023-05-22T03:03:43.776Z,93.51
2023-05-22T03:06:11.995Z,92.94
2023-05-22T03:08:43.547Z,92.42
2023-05-22T03:11:11.694Z,92.78
2023-05-22T03:13:39.709Z,92.99
2023-05-22T03:16:08.389Z,93.62
2023-05-22T03:18:38.763Z,93.67
2023-05-22T03:21:06.954Z,94.03
2023-05-22T03:23:34.868Z,93.80
2023-05-22T03:26:04.222Z,93.92
2023-05-22T03:28:36.039Z,94.20
2023-05-22T03:31:04.498Z,93.90
2023-05-22T03:33:40.401Z,94.16
2023-05-22T03:36:09.682Z,94.14
2023-05-22T03:38:38.061Z,94.46
2023-05-22T03:41:07.905Z,94.51
2023-05-22T03:43:35.939Z,94.66
2023-05-22T03:46:05.042Z,94.72
2023-05-22T03:48:35.904Z,94.64
2023-05-22T03:51:03.972Z,94.75
2023-05-22T03:53:33.939Z,94.81
2023-05-22T03:56:01.913Z,94.36
2023-05-22T03:58:31.261Z,95.12
2023-05-22T04:01:01.132Z,94.89
2023-05-22T04:03:29.508Z,95.12
2023-05-22T04:05:58.659Z,94.51
2023-05-22T04:08:26.604Z,94.47
2023-05-22T04:10:54.626Z,94.27
2023-05-22T04:13:22.624Z,93.26
2023-05-22T04:15:53.631Z,92.83
2023-05-22T04:18:22.108Z,91.71
2023-05-22T04:20:51.829Z,91.47
2023-05-22T04:23:20.211Z,91.54
2023-05-22T04:25:48.932Z,91.96
2023-05-22T04:28:18.314Z,91.75
2023-05-22T04:30:47.706Z,91.86
2023-05-22T04:33:18.249Z,92.42
2023-05-22T04:35:46.314Z,93.55
2023-05-22T04:38:14.293Z,93.40
2023-05-22T04:40:42.437Z,94.24
2023-05-22T04:43:11.614Z,93.93
2023-05-22T04:45:42.338Z,93.10
2023-05-22T04:48:12.017Z,92.23
2023-05-22T04:50:41.670Z,92.28
2023-05-22T04:53:10.024Z,92.42
2023-05-22T04:55:38.139Z,93.01
2023-05-22T04:58:06.877Z,92.80
2023-05-22T05:00:35.364Z,92.21
2023-05-22T05:03:03.473Z,92.06
2023-05-22T05:05:31.452Z,91.96
2023-05-22T05:08:02.004Z,92.52
2023-05-22T05:10:30.167Z,92.73
2023-05-22T05:12:58.157Z,93.18
2023-05-22T05:15:27.591Z,93.55
2023-05-22T05:17:55.980Z,93.34
2023-05-22T05:20:24.839Z,92.89
2023-05-22T05:22:52.812Z,93.10
2023-05-22T05:25:23.179Z,93.59
2023-05-22T05:27:51.274Z,94.45
2023-05-22T05:30:20.662Z,94.33
2023-05-22T05:33:05.630Z,93.56
2023-05-22T05:35:43.078Z,93.12
2023-05-22T05:38:13.073Z,92.41
2023-05-22T05:40:45.258Z,92.04
2023-05-22T05:43:15.337Z,91.12
2023-05-22T05:45:44.752Z,90.71
2023-05-22T05:48:12.984Z,90.40
2023-05-22T05:50:44.520Z,90.45
2023-05-22T05:53:12.757Z,89.96
2023-05-22T05:55:46.196Z,89.95
2023-05-22T05:58:14.841Z,90.19
2023-05-22T06:00:53.527Z,91.80
2023-05-22T06:03:21.621Z,93.01
2023-05-22T06:06:08.825Z,94.23
2023-05-22T06:08:57.191Z,95.50
2023-05-22T06:11:32.735Z,95.21
2023-05-22T06:14:03.108Z,94.00
2023-05-22T06:16:31.309Z,92.95
2023-05-22T06:19:00.592Z,92.16
2023-05-22T06:21:28.861Z,91.72
2023-05-22T06:23:57.409Z,90.58
2023-05-22T06:26:25.913Z,89.67
2023-05-22T06:28:56.074Z,89.71
2023-05-22T06:31:26.017Z,89.28
2023-05-22T06:33:57.034Z,88.75
2023-05-22T06:36:26.256Z,88.06
2023-05-22T06:38:55.517Z,87.40
2023-05-22T06:41:46.633Z,87.15
2023-05-22T06:44:17.217Z,86.45
2023-05-22T06:46:45.165Z,85.52
2023-05-22T06:49:19.722Z,85.02
2023-05-22T06:51:51.148Z,84.90
2023-05-22T06:54:21.205Z,84.69
2023-05-22T06:56:52.732Z,84.74
2023-05-22T06:59:22.161Z,84.46
2023-05-22T07:02:09.158Z,84.00
2023-05-22T07:05:12.168Z,83.64
2023-05-22T07:08:02.088Z,82.80
2023-05-22T07:10:30.965Z,83.12
2023-05-22T07:13:00.432Z,82.54
2023-05-22T07:15:30.393Z,83.16
2023-05-22T07:18:03.347Z,84.50
2023-05-22T07:20:31.386Z,85.42
2023-05-22T07:23:10.002Z,85.48
2023-05-22T07:25:39.490Z,85.11
2023-05-22T07:28:09.229Z,84.47
2023-05-22T07:30:49.577Z,83.20
2023-05-22T07:33:17.880Z,82.09
2023-05-22T07:35:46.704Z,81.16
2023-05-22T07:38:14.952Z,81.38
2023-05-22T07:40:50.221Z,81.98
2023-05-22T07:43:18.811Z,82.51
2023-05-22T07:45:46.821Z,82.17
2023-05-22T07:48:19.036Z,82.46
2023-05-22T07:50:47.809Z,81.67
2023-05-22T07:53:17.286Z,81.04
2023-05-22T07:55:48.948Z,80.82
2023-05-22T07:58:16.939Z,80.78
2023-05-22T08:00:47.594Z,80.57
2023-05-22T08:03:17.555Z,79.90
2023-05-22T08:05:47.489Z,79.18
2023-05-22T08:08:15.622Z,78.89
2023-05-22T08:11:01.824Z,79.36
2023-05-22T08:13:31.579Z,78.58
2023-05-22T08:16:00.138Z,78.29
2023-05-22T08:18:29.773Z,77.60
2023-05-22T08:21:00.344Z,77.08
2023-05-22T08:23:28.344Z,77.35
2023-05-22T08:25:56.290Z,78.19
2023-05-22T08:28:24.244Z,78.11
2023-05-22T08:30:52.296Z,77.47
2023-05-22T08:33:20.728Z,76.56
2023-05-22T08:35:48.678Z,75.93
2023-05-22T08:38:18.006Z,77.51
2023-05-22T08:40:49.688Z,77.53
2023-05-22T08:43:17.826Z,77.48
2023-05-22T08:45:45.979Z,76.06
2023-05-22T08:48:14.841Z,76.04
2023-05-22T08:50:44.165Z,75.67
2023-05-22T08:53:14.944Z,76.20
2023-05-22T08:55:44.558Z,76.10
2023-05-22T08:58:13.330Z,76.21
2023-05-22T09:00:42.121Z,75.71
2023-05-22T09:03:10.485Z,75.36
2023-05-22T09:05:39.251Z,75.92
2023-05-22T09:08:19.266Z,75.89
2023-05-22T09:10:50.275Z,75.48
2023-05-22T09:13:28.429Z,74.75
2023-05-22T09:16:00.705Z,75.84
2023-05-22T09:18:30.236Z,76.24
2023-05-22T09:20:59.155Z,75.73
2023-05-22T09:23:29.077Z,75.28
2023-05-22T09:25:59.932Z,76.21
2023-05-22T09:28:29.098Z,76.08
2023-05-22T09:30:57.110Z,76.46
2023-05-22T09:33:25.624Z,75.79
2023-05-22T09:35:54.760Z,75.72
2023-05-22T09:38:24.413Z,74.90
2023-05-22T09:40:55.442Z,74.09
2023-05-22T09:43:25.762Z,74.92
2023-05-22T09:46:04.269Z,75.66
2023-05-22T09:48:35.329Z,76.56
2023-05-22T09:51:05.188Z,76.70
2023-05-22T09:53:34.455Z,75.42
2023-05-22T09:56:05.489Z,76.48
2023-05-22T09:58:36.789Z,74.55
2023-05-22T10:01:05.285Z,73.58
2023-05-22T10:03:35.984Z,73.27
2023-05-22T10:06:04.902Z,73.08
2023-05-22T10:08:40.982Z,73.98
2023-05-22T10:11:11.061Z,73.74
2023-05-22T10:13:42.439Z,74.57
2023-05-22T10:16:12.220Z,73.02
2023-05-22T10:18:41.721Z,72.89
2023-05-22T10:21:09.742Z,71.63
2023-05-22T10:23:38.286Z,71.50
2023-05-22T10:26:07.165Z,70.11
2023-05-22T10:28:43.011Z,70.94
2023-05-22T10:31:20.064Z,70.09
2023-05-22T10:33:53.335Z,69.90
2023-05-22T10:36:35.671Z,69.99
2023-05-22T10:39:17.056Z,68.77
2023-05-22T10:41:45.082Z,69.10
2023-05-22T10:44:14.557Z,69.75
2023-05-22T10:46:49.705Z,68.79
2023-05-22T10:49:22.551Z,69.14
2023-05-22T10:51:50.664Z,69.45
2023-05-22T10:54:18.590Z,68.33
2023-05-22T10:56:46.831Z,68.61
2023-05-22T10:59:16.141Z,69.06
2023-05-22T11:01:44.145Z,67.98
2023-05-22T11:04:19.215Z,68.76
2023-05-22T11:07:04.413Z,68.75
2023-05-22T11:09:33.646Z,68.71
2023-05-22T11:12:19.583Z,69.46
2023-05-22T11:14:54.399Z,69.29
2023-05-22T11:17:24.360Z,69.60
2023-05-22T11:20:05.268Z,70.29
2023-05-22T11:22:38.170Z,71.13
2023-05-22T11:25:09.559Z,70.09
2023-05-22T11:27:39.120Z,70.05
2023-05-22T11:30:10.386Z,70.03
2023-05-22T11:32:39.160Z,65.98
2023-05-22T11:35:08.534Z,62.44
2023-05-22T11:37:39.791Z,61.39
2023-05-22T11:40:08.832Z,61.67
2023-05-22T11:42:37.741Z,60.98
2023-05-22T11:45:08.519Z,57.00
2023-05-22T11:47:37.047Z,55.09
2023-05-22T11:50:07.116Z,56.99
2023-05-22T11:52:36.177Z,56.67
2023-05-22T11:55:06.579Z,57.49
2023-05-22T11:57:35.335Z,56.36
2023-05-22T12:00:06.463Z,56.33
2023-05-22T12:02:46.520Z,55.19
2023-05-22T12:05:15.957Z,55.81
2023-05-22T12:07:44.453Z,56.35
2023-05-22T12:10:12.704Z,56.99
2023-05-22T12:12:40.756Z,57.73
2023-05-22T12:15:09.780Z,58.03
2023-05-22T12:17:38.621Z,60.80
2023-05-22T12:20:08.593Z,67.91
2023-05-22T12:22:42.913Z,73.50
2023-05-22T12:25:16.461Z,73.08
2023-05-22T12:27:45.320Z,71.04
2023-05-22T12:30:15.457Z,73.00
2023-05-22T12:32:48.852Z,74.75
2023-05-22T12:35:19.905Z,75.97
2023-05-22T12:37:51.896Z,75.98
2023-05-22T12:40:20.442Z,77.36
2023-05-22T12:42:49.030Z,77.47
2023-05-22T12:45:18.096Z,80.14
2023-05-22T12:47:46.436Z,75.44
2023-05-22T12:50:14.604Z,73.44
2023-05-22T12:52:43.946Z,72.33
2023-05-22T12:55:12.519Z,72.95
2023-05-22T12:57:40.494Z,72.13
2023-05-22T13:00:09.957Z,70.79
2023-05-22T13:02:38.066Z,68.87
2023-05-22T13:05:07.056Z,68.25
2023-05-22T13:07:35.021Z,69.64
2023-05-22T13:10:06.129Z,68.87
2023-05-22T13:12:34.222Z,71.04
2023-05-22T13:15:02.785Z,68.98
2023-05-22T13:17:30.775Z,69.88
2023-05-22T13:19:59.427Z,67.68
2023-05-22T13:22:27.415Z,64.76
2023-05-22T13:24:55.413Z,65.19
2023-05-22T13:27:24.768Z,68.05
2023-05-22T13:29:52.749Z,66.46
2023-05-22T13:32:21.123Z,65.75
2023-05-22T13:34:49.249Z,62.18
2023-05-22T13:37:18.532Z,62.12
2023-05-22T13:39:46.736Z,62.81
2023-05-22T13:42:14.771Z,61.04
2023-05-22T13:44:44.164Z,62.28
2023-05-22T13:47:12.273Z,62.13
2023-05-22T13:49:40.400Z,61.56
2023-05-22T13:52:08.396Z,61.56
2023-05-22T13:54:36.351Z,61.28
2023-05-22T13:57:04.349Z,62.79
2023-05-22T13:59:32.294Z,60.52
2023-05-22T14:02:01.898Z,60.51
2023-05-22T14:04:30.055Z,59.80
2023-05-22T14:06:57.968Z,57.15
2023-05-22T14:09:25.986Z,57.72
2023-05-22T14:11:54.017Z,60.07
2023-05-22T14:14:24.038Z,60.65
2023-05-22T14:16:52.836Z,60.05
2023-05-22T14:19:22.341Z,59.85
2023-05-22T14:21:51.858Z,59.58
2023-05-22T14:24:20.188Z,60.10
2023-05-22T14:26:48.183Z,59.21
2023-05-22T14:29:16.293Z,58.90
2023-05-22T14:31:51.499Z,57.06
2023-05-22T14:34:20.274Z,56.79
2023-05-22T14:36:49.701Z,56.82
2023-05-22T14:39:17.631Z,55.95
2023-05-22T14:41:45.611Z,56.74
2023-05-22T14:44:13.573Z,57.08
2023-05-22T14:46:41.621Z,58.04
2023-05-22T14:49:09.553Z,57.50
2023-05-22T14:51:37.530Z,57.56
2023-05-22T14:54:07.779Z,57.61
2023-05-22T14:56:36.126Z,57.32
2023-05-22T14:59:04.085Z,57.53
2023-05-22T15:01:32.135Z,56.96
2023-05-22T15:04:00.119Z,57.49
2023-05-22T15:06:28.188Z,56.74
2023-05-22T15:08:56.152Z,56.89
2023-05-22T15:11:26.254Z,55.86
2023-05-22T15:13:54.830Z,55.92
2023-05-22T15:16:23.520Z,54.58
2023-05-22T15:18:51.754Z,55.55
2023-05-22T15:21:20.193Z,56.25
2023-05-22T15:23:48.448Z,56.35
2023-05-22T15:26:16.665Z,56.40
2023-05-22T15:28:46.017Z,55.43
2023-05-22T15:31:14.518Z,54.35
2023-05-22T15:33:42.532Z,53.43
2023-05-22T15:36:10.504Z,54.35
2023-05-22T15:38:38.468Z,53.20
2023-05-22T15:41:06.457Z,52.07
2023-05-22T15:43:34.403Z,52.55
2023-05-22T15:46:03.805Z,52.29
2023-05-22T15:48:32.528Z,52.15
2023-05-22T15:51:00.715Z,51.95
2023-05-22T15:53:28.628Z,51.75
2023-05-22T15:55:56.568Z,51.80
2023-05-22T15:58:24.500Z,50.09
2023-05-22T16:00:52.468Z,50.56
2023-05-22T16:03:21.847Z,51.13
2023-05-22T16:05:49.957Z,51.52
2023-05-22T16:08:18.264Z,51.24
2023-05-22T16:10:47.223Z,51.98
2023-05-22T16:13:15.529Z,51.86
2023-05-22T16:15:44.667Z,51.23
2023-05-22T16:18:12.951Z,51.47
2023-05-22T16:20:42.378Z,50.75
2023-05-22T16:23:10.330Z,51.30
2023-05-22T16:25:38.564Z,50.33
2023-05-22T16:28:06.703Z,48.32
2023-05-22T16:30:34.672Z,49.34
2023-05-22T16:33:03.205Z,48.94
2023-05-22T16:35:31.793Z,49.40
2023-05-22T16:38:01.297Z,48.42
2023-05-22T16:40:29.500Z,48.43
2023-05-22T16:42:57.498Z,49.30
2023-05-22T16:45:25.733Z,48.81
2023-05-22T16:47:55.761Z,46.92
2023-05-22T16:50:24.177Z,46.90
2023-05-22T16:52:52.108Z,46.56
2023-05-22T16:55:21.633Z,45.83
2023-05-22T16:57:49.794Z,46.00
2023-05-22T17:00:18.714Z,45.23
2023-05-22T17:02:46.852Z,46.49
2023-05-22T17:05:14.835Z,46.15
2023-05-22T17:07:42.835Z,46.03
2023-05-22T17:10:11.663Z,47.12
2023-05-22T17:12:41.205Z,46.41
2023-05-22T17:15:10.063Z,45.93
2023-05-22T17:17:38.134Z,45.94
2023-05-22T17:20:07.844Z,45.39
2023-05-22T17:22:36.715Z,45.26
2023-05-22T17:25:05.303Z,46.88
2023-05-22T17:27:36.535Z,47.48
2023-05-22T17:30:08.047Z,45.61
2023-05-22T17:32:36.252Z,46.68
2023-05-22T17:35:06.488Z,46.86
2023-05-22T17:37:34.743Z,47.24
2023-05-22T17:40:02.706Z,47.29
2023-05-22T17:42:30.871Z,46.55
2023-05-22T17:44:58.769Z,48.18
2023-05-22T17:47:28.293Z,48.82
2023-05-22T17:49:56.438Z,48.92
2023-05-22T17:52:24.358Z,48.18
2023-05-22T17:54:52.292Z,46.98
2023-05-22T17:57:20.256Z,45.76
2023-05-22T17:59:48.258Z,45.61
2023-05-22T18:02:16.173Z,46.71
2023-05-22T18:04:45.872Z,46.07
2023-05-22T18:07:16.019Z,45.59
2023-05-22T18:09:44.027Z,44.84
2023-05-22T18:12:30.258Z,45.30
2023-05-22T18:14:58.941Z,45.18
2023-05-22T18:17:27.091Z,45.83
2023-05-22T18:19:56.427Z,44.39
2023-05-22T18:22:25.580Z,45.19
2023-05-22T18:24:53.714Z,45.13
2023-05-22T18:27:21.645Z,47.29
2023-05-22T18:29:50.488Z,48.51
2023-05-22T18:32:18.460Z,48.61
2023-05-22T18:34:46.556Z,48.77
2023-05-22T18:37:16.350Z,49.57
2023-05-22T18:39:44.392Z,49.23
2023-05-22T18:42:12.683Z,50.24
2023-05-22T18:44:40.720Z,50.24
2023-05-22T18:47:08.967Z,50.19
2023-05-22T18:49:36.988Z,50.12
2023-05-22T18:52:05.171Z,50.51
2023-05-22T18:54:34.570Z,50.42
2023-05-22T18:57:02.497Z,51.59
2023-05-22T18:59:30.406Z,52.34
2023-05-22T19:01:58.309Z,52.67
2023-05-22T19:04:26.308Z,52.40
2023-05-22T19:06:54.317Z,53.02
2023-05-22T19:09:22.338Z,53.24
2023-05-22T19:11:51.722Z,54.39
2023-05-22T19:14:19.775Z,54.29
2023-05-22T19:16:47.870Z,54.93
2023-05-22T19:19:15.874Z,54.39
2023-05-22T19:21:43.898Z,55.44
2023-05-22T19:24:11.897Z,55.34
2023-05-22T19:26:39.967Z,55.38
2023-05-22T19:29:09.446Z,55.28
2023-05-22T19:31:37.572Z,56.66
2023-05-22T19:34:05.867Z,56.72
2023-05-22T19:36:34.709Z,56.88
2023-05-22T19:39:02.827Z,56.88
2023-05-22T19:41:30.877Z,56.84
2023-05-22T19:43:58.909Z,57.24
2023-05-22T19:46:28.296Z,57.25
2023-05-22T19:48:56.719Z,57.16
2023-05-22T19:51:24.985Z,57.49
2023-05-22T19:53:52.925Z,57.64
2023-05-22T19:56:20.912Z,57.94
2023-05-22T19:58:48.902Z,58.26
2023-05-22T20:01:17.480Z,59.14
2023-05-22T20:03:47.138Z,58.63
2023-05-22T20:06:15.615Z,58.23
2023-05-22T20:08:44.323Z,58.11
2023-05-22T20:11:12.284Z,57.24
2023-05-22T20:13:40.204Z,57.35
2023-05-22T20:16:11.907Z,57.89
2023-05-22T20:18:41.166Z,59.17
2023-05-22T20:21:10.873Z,60.01
2023-05-22T20:23:39.950Z,60.04
2023-05-22T20:26:08.025Z,60.67
2023-05-22T20:28:36.033Z,61.42
2023-05-22T20:31:05.059Z,61.79
2023-05-22T20:33:33.099Z,63.43
2023-05-22T20:36:01.554Z,64.24
2023-05-22T20:38:30.913Z,64.10
2023-05-22T20:40:59.762Z,64.26
2023-05-22T20:43:30.187Z,63.64
2023-05-22T20:45:58.264Z,64.05
2023-05-22T20:48:26.273Z,64.64
2023-05-22T20:50:54.190Z,64.66
2023-05-22T20:53:22.172Z,65.23
2023-05-22T20:55:53.349Z,65.47
2023-05-22T20:58:23.071Z,65.17
2023-05-22T21:00:51.525Z,65.85
2023-05-22T21:03:19.624Z,66.20
2023-05-22T21:05:47.606Z,66.44
2023-05-22T21:08:15.523Z,66.57
2023-05-22T21:10:43.476Z,66.74
2023-05-22T21:13:12.822Z,66.85
2023-05-22T21:15:40.830Z,66.86
2023-05-22T21:18:08.887Z,67.45
2023-05-22T21:20:36.878Z,67.77
2023-05-22T21:23:04.849Z,67.89
2023-05-22T21:25:32.835Z,67.91
2023-05-22T21:28:01.857Z,68.02
2023-05-22T21:30:31.692Z,68.37
2023-05-22T21:32:59.720Z,68.51
2023-05-22T21:35:27.781Z,68.57
2023-05-22T21:37:55.746Z,68.33
2023-05-22T21:40:23.828Z,68.46
2023-05-22T21:42:51.846Z,68.67
2023-05-22T21:45:19.954Z,68.67
2023-05-22T21:47:49.313Z,68.82
2023-05-22T21:50:17.555Z,69.22
2023-05-22T21:52:45.601Z,69.47
2023-05-22T21:55:13.535Z,69.67
2023-05-22T21:57:41.477Z,69.75
2023-05-22T22:00:10.543Z,70.18
2023-05-22T22:02:38.562Z,70.02
2023-05-22T22:05:08.937Z,69.59
2023-05-22T22:07:36.895Z,69.79
2023-05-22T22:10:05.413Z,69.71
2023-05-22T22:12:33.352Z,69.44
2023-05-22T22:15:01.346Z,69.97
2023-05-22T22:17:30.140Z,70.37
2023-05-22T22:19:58.256Z,70.25
2023-05-22T22:22:27.647Z,70.29
2023-05-22T22:24:55.591Z,70.34
2023-05-22T22:27:23.552Z,71.08
2023-05-22T22:29:51.528Z,71.32
2023-05-22T22:32:19.628Z,71.49
2023-05-22T22:34:48.738Z,71.44
2023-05-22T22:37:18.131Z,71.83
2023-05-22T22:39:47.516Z,72.08
2023-05-22T22:42:15.489Z,72.45
2023-05-22T22:44:44.453Z,72.31
2023-05-22T22:47:12.418Z,72.11
2023-05-22T22:49:40.316Z,72.48
2023-05-22T22:52:08.483Z,72.92
2023-05-22T22:54:36.508Z,72.67
2023-05-22T22:57:06.331Z,72.08
2023-05-22T22:59:35.548Z,71.89
2023-05-22T23:02:03.505Z,71.99
2023-05-22T23:04:31.697Z,72.23
2023-05-22T23:06:59.750Z,72.13
2023-05-22T23:09:27.701Z,72.14
2023-05-22T23:11:55.651Z,72.73
2023-05-22T23:14:25.166Z,73.14
2023-05-22T23:16:53.136Z,73.10
2023-05-22T23:19:21.433Z,73.17
2023-05-22T23:21:49.456Z,73.47
2023-05-22T23:24:17.466Z,73.70
2023-05-22T23:26:45.421Z,73.88
2023-05-22T23:29:13.577Z,74.09
2023-05-22T23:31:43.189Z,74.28
2023-05-22T23:34:11.372Z,74.24
2023-05-22T23:36:39.309Z,74.47
2023-05-22T23:39:07.241Z,74.50
2023-05-22T23:41:35.551Z,74.92
2023-05-22T23:44:03.680Z,74.79
2023-05-22T23:46:31.847Z,74.97
2023-05-22T23:49:01.132Z,74.74
2023-05-22T23:51:29.074Z,75.07
2023-05-22T23:53:57.017Z,75.03
2023-05-22T23:56:24.982Z,75.25
2023-05-22T23:58:52.881Z,75.18
